Time;durP1;ratioP1;P1;durP2;ratioP2;P2;SDS_P1;SDS_P2;PMS_P1;PMS_P2;Temp;Humidity;BMP_temperature;BMP_pressure;BME280_temperature;BME280_humidity;BME280_pressure;Samples;Min_cycle;Max_cycle;Signal;HPM_P1;HPM_P2
2022/10/21 00:00:01;;;;;;;11.93;5.30;;;;;;;42.21;32.28;101132.78;5097477;28;20938;-70
2022/10/21 00:02:27;;;;;;;13.73;7.60;;;;;;;42.35;32.13;101130.59;5114090;28;20174;-69
2022/10/21 00:04:52;;;;;;;12.63;4.80;;;;;;;42.32;31.84;101123.88;5113999;28;20202;-69
2022/10/21 00:07:18;;;;;;;24.23;5.67;;;;;;;42.33;31.88;101121.94;5097119;28;20650;-69
2022/10/21 00:09:44;;;;;;;12.60;5.10;;;;;;;42.32;31.91;101123.09;5115857;28;20249;-69
2022/10/21 00:12:10;;;;;;;13.43;4.57;;;;;;;42.30;31.81;101117.97;5115530;28;20488;-70
2022/10/21 00:14:36;;;;;;;15.27;5.67;;;;;;;42.35;32.04;101104.13;5113406;28;20247;-69
2022/10/21 00:17:02;;;;;;;10.83;5.93;;;;;;;42.36;31.95;101099.50;5114772;28;20525;-70
2022/10/21 00:19:28;;;;;;;13.10;7.90;;;;;;;42.22;32.24;101088.81;5115461;28;20165;-69
2022/10/21 00:21:54;;;;;;;15.17;6.27;;;;;;;42.35;32.38;101087.75;5113682;28;20440;-69
2022/10/21 00:24:19;;;;;;;16.37;6.10;;;;;;;42.39;32.38;101087.91;5113657;28;20182;-69
2022/10/21 00:26:45;;;;;;;15.90;6.63;;;;;;;42.38;32.17;101089.03;5113643;28;20177;-69
2022/10/21 00:29:11;;;;;;;13.87;4.83;;;;;;;42.38;32.41;101089.84;5113553;28;20343;-69
2022/10/21 00:31:37;;;;;;;8.90;4.10;;;;;;;42.42;32.64;101086.44;5113578;28;20178;-69
2022/10/21 00:34:03;;;;;;;11.20;6.00;;;;;;;42.37;32.86;101084.72;5113449;28;20188;-69
2022/10/21 00:36:30;;;;;;;9.50;5.57;;;;;;;42.35;32.82;101070.59;5113405;28;20239;-69
2022/10/21 00:38:56;;;;;;;16.63;7.57;;;;;;;42.28;32.96;101062.16;5113346;28;20174;-70
2022/10/21 00:41:22;;;;;;;11.13;6.13;;;;;;;42.37;32.93;101060.19;5113362;28;20864;-69
2022/10/21 00:44:00;;;;;;;13.67;7.30;;;;;;;42.37;33.13;101062.91;5113306;28;20416;-69
2022/10/21 00:46:34;;;;;;;12.60;5.77;;;;;;;42.26;33.66;101059.78;5115002;28;20384;-70
2022/10/21 00:49:07;;;;;;;18.00;6.83;;;;;;;42.35;33.47;101067.88;5113246;28;20423;-69
2022/10/21 00:51:33;;;;;;;12.83;5.73;;;;;;;42.32;33.76;101057.66;5113575;28;20400;-70
2022/10/21 00:54:01;;;;;;;13.10;6.00;;;;;;;42.36;33.78;101056.66;5096388;28;20412;-69
2022/10/21 00:56:31;;;;;;;13.70;7.47;;;;;;;42.35;33.86;101046.84;5112807;28;20910;-69
2022/10/21 00:58:59;;;;;;;11.87;7.27;;;;;;;42.37;33.67;101050.06;5113285;28;20452;-70
2022/10/21 01:01:25;;;;;;;15.00;6.53;;;;;;;42.36;34.00;101051.22;5114505;28;20404;-69
2022/10/21 01:03:51;;;;;;;9.53;5.43;;;;;;;42.36;34.20;101053.94;5096918;28;20407;-70
2022/10/21 01:06:22;;;;;;;18.10;7.07;;;;;;;42.37;33.85;101055.53;5112860;28;20538;-69
2022/10/21 01:08:48;;;;;;;21.77;7.10;;;;;;;42.36;34.00;101053.94;5095846;28;20415;-70
2022/10/21 01:11:18;;;;;;;21.73;6.30;;;;;;;42.33;34.04;101048.34;5114482;28;20418;-69
2022/10/21 01:14:06;;;;;;;20.83;6.30;;;;;;;42.31;34.29;101051.41;5095997;28;20504;-70
2022/10/21 01:16:44;;;;;;;10.03;6.90;;;;;;;42.32;34.21;101044.03;5112334;28;20483;-69
2022/10/21 01:19:44;;;;;;;9.70;6.10;;;;;;;42.31;34.26;101032.31;5112658;28;20461;-70
2022/10/21 01:22:22;;;;;;;14.40;7.43;;;;;;;42.28;34.21;101032.97;5112795;28;20400;-69
2022/10/21 01:25:12;;;;;;;18.00;6.63;;;;;;;42.34;33.81;101030.84;5112666;28;20432;-69
2022/10/21 01:28:03;;;;;;;11.30;6.27;;;;;;;42.37;34.04;101038.38;5097464;28;20962;-70
2022/10/21 01:30:40;;;;;;;14.70;7.37;;;;;;;42.31;34.00;101035.03;5091100;28;20927;-70
2022/10/21 01:33:31;;;;;;;15.33;7.53;;;;;;;42.27;34.12;101036.81;5112145;28;21006;-69
2022/10/21 01:36:34;;;;;;;29.73;7.17;;;;;;;42.22;33.96;101023.41;5112160;28;20460;-69
2022/10/21 01:39:10;;;;;;;14.27;7.07;;;;;;;42.27;34.07;101025.13;5113855;28;20759;-69
2022/10/21 01:42:25;;;;;;;18.73;8.20;;;;;;;42.00;34.46;101020.97;5112483;28;20431;-70
2022/10/21 01:45:12;;;;;;;19.30;6.37;;;;;;;41.83;34.49;100995.44;5034452;28;20426;-70
2022/10/21 01:47:43;;;;;;;20.20;10.17;;;;;;;41.81;34.50;100997.69;5017629;28;20449;-69
2022/10/21 01:50:18;;;;;;;23.20;9.10;;;;;;;41.60;35.08;100999.53;5083216;28;20420;-69
2022/10/21 01:52:48;;;;;;;12.63;8.00;;;;;;;41.77;34.92;100995.94;5112116;28;20462;-70
2022/10/21 01:55:19;;;;;;;24.57;8.77;;;;;;;41.83;34.57;100992.69;5111804;28;20911;-69
2022/10/21 01:58:01;;;;;;;19.53;7.80;;;;;;;42.04;34.32;100995.44;5111951;28;20408;-70
2022/10/21 02:00:28;;;;;;;19.63;6.90;;;;;;;41.93;34.04;100990.72;5111800;28;20412;-69
2022/10/21 02:02:56;;;;;;;11.53;7.07;;;;;;;41.68;34.99;100987.81;5111943;28;20848;-70
2022/10/21 02:05:28;;;;;;;14.27;6.93;;;;;;;41.92;34.72;100973.56;5111773;28;20432;-72
2022/10/21 02:07:54;;;;;;;14.70;6.53;;;;;;;42.03;34.66;100979.41;5113594;28;20884;-72
2022/10/21 02:10:22;;;;;;;25.83;7.70;;;;;;;41.88;34.94;100963.69;5111715;28;20512;-71
2022/10/21 02:12:53;;;;;;;18.23;8.53;;;;;;;41.78;34.62;100951.22;5113325;28;20396;-71
2022/10/21 02:15:22;;;;;;;16.03;6.23;;;;;;;41.68;34.94;100946.13;5113083;28;20458;-71
2022/10/21 02:18:09;;;;;;;11.60;6.83;;;;;;;41.81;34.67;100950.59;5111634;28;20420;-71
2022/10/21 02:20:40;;;;;;;20.73;8.80;;;;;;;42.01;34.41;100952.50;5113345;28;20411;-71
2022/10/21 02:23:10;;;;;;;21.97;8.40;;;;;;;42.11;34.47;100962.19;5111489;28;20408;-71
2022/10/21 02:25:39;;;;;;;15.53;7.00;;;;;;;41.93;34.86;100974.34;5111676;28;20939;-71
2022/10/21 02:28:06;;;;;;;11.73;6.10;;;;;;;41.88;34.96;100969.91;5111601;28;20499;-71
2022/10/21 02:30:44;;;;;;;15.73;7.30;;;;;;;42.06;34.63;100976.84;5111431;28;20427;-71
2022/10/21 02:33:22;;;;;;;22.50;9.23;;;;;;;42.13;34.44;100968.13;5111483;28;20411;-71
2022/10/21 02:36:02;;;;;;;19.57;8.03;;;;;;;42.02;34.83;100962.28;5111396;28;20971;-71
2022/10/21 02:38:29;;;;;;;28.27;7.70;;;;;;;42.05;34.90;100958.91;5113193;28;20420;-71
2022/10/21 02:41:06;;;;;;;20.13;8.60;;;;;;;41.98;34.70;100944.19;5115633;28;20807;-71
2022/10/21 02:43:44;;;;;;;12.70;7.77;;;;;;;41.82;35.00;100952.19;5115572;28;20461;-71
2022/10/21 02:46:13;;;;;;;15.30;9.23;;;;;;;42.00;34.32;100964.53;5115576;28;20400;-71
2022/10/21 02:48:42;;;;;;;18.83;7.77;;;;;;;42.09;34.69;100978.09;5115528;28;20427;-71
2022/10/21 02:51:08;;;;;;;12.90;9.00;;;;;;;42.20;34.61;100973.88;5115503;28;20510;-72
2022/10/21 02:53:35;;;;;;;21.47;10.17;;;;;;;42.11;34.01;100967.66;5115562;28;20530;-72
2022/10/21 02:56:01;;;;;;;21.70;13.37;;;;;;;42.17;33.60;100951.91;5115249;28;20839;-71
2022/10/21 02:58:28;;;;;;;15.03;9.93;;;;;;;42.25;32.91;100940.97;5116663;28;20408;-71
2022/10/21 03:00:54;;;;;;;20.13;12.73;;;;;;;42.21;32.63;100948.19;5117039;27;20811;-71
2022/10/21 03:03:20;;;;;;;20.43;13.27;;;;;;;42.20;32.70;100960.25;5115282;28;20486;-71
2022/10/21 03:05:46;;;;;;;30.90;11.30;;;;;;;42.14;32.85;100951.44;5115173;28;20530;-71
2022/10/21 03:08:12;;;;;;;17.20;11.20;;;;;;;42.23;33.05;100954.09;5116907;28;20400;-71
2022/10/21 03:10:38;;;;;;;16.20;12.67;;;;;;;42.27;33.20;100957.78;5115051;28;20569;-71
2022/10/21 03:13:04;;;;;;;15.57;9.10;;;;;;;42.21;32.91;100961.03;5115062;28;20416;-71
2022/10/21 03:15:30;;;;;;;21.53;7.93;;;;;;;42.21;33.00;100959.09;5114755;28;20234;-71
2022/10/21 03:17:56;;;;;;;21.30;8.97;;;;;;;42.10;33.16;100949.69;5114981;28;20408;-71
2022/10/21 03:20:22;;;;;;;14.50;7.93;;;;;;;42.11;33.24;100938.50;5098661;28;20739;-71
2022/10/21 03:22:48;;;;;;;13.17;7.73;;;;;;;41.91;33.54;100943.94;5116402;27;20249;-69
2022/10/21 03:25:14;;;;;;;12.27;6.67;;;;;;;41.88;33.94;100944.59;5097982;28;20506;-69
2022/10/21 03:27:40;;;;;;;14.70;7.37;;;;;;;41.92;33.93;100942.78;5114853;28;20520;-70
2022/10/21 03:30:07;;;;;;;30.90;8.50;;;;;;;41.70;34.20;100943.91;5116262;28;20912;-69
2022/10/21 03:32:33;;;;;;;11.40;6.50;;;;;;;41.85;33.78;100948.78;5097746;28;20657;-70
2022/10/21 03:34:59;;;;;;;13.30;7.93;;;;;;;41.74;33.93;100942.94;5114589;28;20419;-69
2022/10/21 03:37:25;;;;;;;13.07;9.00;;;;;;;41.48;34.60;100942.25;5116111;28;20523;-70
2022/10/21 03:39:51;;;;;;;14.80;7.33;;;;;;;40.87;36.07;100947.09;5114630;28;20269;-69
2022/10/21 03:42:17;;;;;;;15.93;7.80;;;;;;;40.72;36.08;100949.22;5114480;28;20447;-69
2022/10/21 03:44:43;;;;;;;10.83;6.40;;;;;;;41.26;35.53;100935.94;5114853;28;20213;-70
2022/10/21 03:47:09;;;;;;;12.20;6.60;;;;;;;41.16;35.73;100949.13;5097413;28;20904;-69
2022/10/21 03:49:35;;;;;;;9.13;7.00;;;;;;;40.75;36.39;100959.44;5113752;28;20228;-70
2022/10/21 03:52:00;;;;;;;17.30;7.00;;;;;;;40.96;36.18;100954.16;5114928;28;20389;-69
2022/10/21 03:54:26;;;;;;;19.43;7.43;;;;;;;40.78;36.51;100947.94;5097451;28;20178;-69
2022/10/21 03:56:52;;;;;;;19.27;6.40;;;;;;;41.04;35.48;100937.00;5115905;28;20200;-69
2022/10/21 03:59:18;;;;;;;13.23;6.73;;;;;;;40.79;36.17;100932.41;5114137;28;20185;-70
2022/10/21 04:01:44;;;;;;;12.83;8.90;;;;;;;40.76;36.04;100935.75;5114371;28;20826;-70
2022/10/21 04:04:10;;;;;;;13.47;6.77;;;;;;;40.94;35.72;100944.69;5114365;28;20788;-69
2022/10/21 04:06:36;;;;;;;14.40;6.60;;;;;;;40.59;36.29;100941.25;5114061;28;20439;-69
2022/10/21 04:09:02;;;;;;;19.63;9.30;;;;;;;41.07;35.95;100941.00;5080259;28;20412;-70
2022/10/21 04:11:28;;;;;;;20.00;7.70;;;;;;;40.73;36.68;100950.03;5115491;28;20814;-69
2022/10/21 04:13:54;;;;;;;12.40;6.83;;;;;;;40.85;36.24;100952.06;5113836;28;20420;-69
2022/10/21 04:16:21;;;;;;;11.90;8.00;;;;;;;41.07;36.26;100951.88;5113779;28;20252;-69
2022/10/21 04:18:47;;;;;;;19.00;6.97;;;;;;;40.94;36.34;100944.69;5096879;28;20201;-69
2022/10/21 04:21:13;;;;;;;11.67;8.20;;;;;;;41.11;36.35;100949.28;5113917;28;20412;-69
2022/10/21 04:23:40;;;;;;;12.63;6.80;;;;;;;41.30;36.17;100955.91;5080029;28;20451;-69
2022/10/21 04:26:06;;;;;;;18.33;7.73;;;;;;;41.12;36.25;100957.13;5113645;28;20494;-69
2022/10/21 04:28:33;;;;;;;22.97;8.90;;;;;;;41.29;35.40;100948.88;5113655;28;20932;-69
2022/10/21 04:30:59;;;;;;;19.43;8.67;;;;;;;41.07;35.46;100951.88;5113462;28;20501;-69
2022/10/21 04:33:25;;;;;;;27.80;11.10;;;;;;;41.17;35.47;100940.63;5114782;27;20384;-70
2022/10/21 04:35:53;;;;;;;26.23;10.50;;;;;;;41.18;35.16;100944.94;5096338;28;20983;-70
2022/10/21 04:38:21;;;;;;;24.20;8.70;;;;;;;40.69;35.92;100952.56;5113365;28;20448;-70
2022/10/21 04:40:47;;;;;;;21.53;8.37;;;;;;;41.24;34.88;100959.94;5115162;28;20440;-69
2022/10/21 04:43:13;;;;;;;28.73;9.60;;;;;;;41.40;34.49;100967.63;5096229;28;20506;-70
2022/10/21 04:45:39;;;;;;;28.50;9.40;;;;;;;41.55;34.64;100967.84;5096984;28;20649;-70
2022/10/21 04:48:06;;;;;;;32.27;11.00;;;;;;;41.39;34.54;100968.75;5113290;28;20458;-69
2022/10/21 04:50:33;;;;;;;19.23;8.10;;;;;;;41.53;33.86;100977.47;5113397;28;20445;-69
2022/10/21 04:52:59;;;;;;;23.57;8.30;;;;;;;41.53;33.59;100970.09;5113156;28;20424;-70
2022/10/21 04:55:25;;;;;;;31.80;10.07;;;;;;;41.64;33.46;100969.72;5114587;28;20767;-70
2022/10/21 04:57:51;;;;;;;23.40;9.57;;;;;;;41.59;33.27;100963.34;5096052;28;20423;-70
2022/10/21 05:00:17;;;;;;;32.33;9.67;;;;;;;41.68;33.63;100970.66;5113276;28;20181;-69
2022/10/21 05:02:43;;;;;;;30.00;11.90;;;;;;;41.62;33.62;100975.50;5112874;28;20170;-69
2022/10/21 05:05:09;;;;;;;20.60;8.73;;;;;;;41.66;33.79;100979.16;5112933;28;20436;-69
2022/10/21 05:07:35;;;;;;;32.60;9.67;;;;;;;41.53;33.35;100975.53;5112767;28;20411;-71
2022/10/21 05:10:01;;;;;;;23.00;9.63;;;;;;;41.62;33.39;100978.25;5112853;28;20412;-71
2022/10/21 05:12:27;;;;;;;25.60;10.03;;;;;;;41.60;33.13;100985.91;5112780;28;20178;-72
2022/10/21 05:14:52;;;;;;;29.07;9.87;;;;;;;41.62;33.51;100989.13;5114020;28;20829;-69
2022/10/21 05:17:18;;;;;;;24.13;8.67;;;;;;;41.56;33.42;100993.16;5112683;28;20190;-69
2022/10/21 05:19:44;;;;;;;25.03;9.80;;;;;;;41.57;33.26;100997.47;5112967;28;20421;-70
2022/10/21 05:22:11;;;;;;;33.97;9.80;;;;;;;41.52;33.36;101003.09;5114164;28;20235;-71
2022/10/21 05:24:37;;;;;;;20.07;10.67;;;;;;;41.60;33.10;101005.78;5112605;28;20697;-71
2022/10/21 05:27:03;;;;;;;15.77;9.60;;;;;;;41.55;33.47;101019.56;5114078;28;20484;-72
2022/10/21 05:29:28;;;;;;;26.63;9.57;;;;;;;41.68;33.15;101025.13;5113027;28;20178;-71
2022/10/21 05:31:54;;;;;;;20.90;10.13;;;;;;;41.63;33.32;101031.56;5114101;28;20471;-71
2022/10/21 05:34:21;;;;;;;20.33;9.43;;;;;;;41.64;32.83;101027.72;5109704;28;20460;-70
2022/10/21 05:36:48;;;;;;;33.20;11.10;;;;;;;41.70;33.07;101018.25;5101259;28;20651;-69
2022/10/21 05:39:14;;;;;;;16.70;9.70;;;;;;;41.72;32.91;101015.19;5101232;28;20886;-69
2022/10/21 05:41:40;;;;;;;17.93;9.20;;;;;;;41.77;33.19;101013.09;5085098;28;20817;-69
2022/10/21 05:44:06;;;;;;;24.17;10.20;;;;;;;41.72;33.42;101020.63;5103225;28;20431;-69
2022/10/21 05:46:32;;;;;;;19.70;9.83;;;;;;;41.77;33.33;101018.53;5112023;28;20519;-70
2022/10/21 05:48:58;;;;;;;24.53;9.73;;;;;;;41.81;33.06;101024.94;5100788;28;20173;-71
2022/10/21 05:51:27;;;;;;;19.93;10.17;;;;;;;41.81;32.84;101014.03;5096383;28;20177;-73
2022/10/21 05:53:54;;;;;;;21.53;8.60;;;;;;;41.80;32.32;101015.16;5104035;28;20428;-71
2022/10/21 05:56:21;;;;;;;13.40;7.83;;;;;;;41.76;32.08;101016.16;5108332;28;20972;-71
2022/10/21 05:58:47;;;;;;;25.13;9.17;;;;;;;41.84;32.33;101024.25;5112387;28;20505;-71
2022/10/21 06:01:13;;;;;;;22.03;9.73;;;;;;;41.89;32.32;101028.72;5104759;28;20436;-72
2022/10/21 06:03:39;;;;;;;26.80;9.43;;;;;;;41.85;32.06;101030.50;5098572;28;20424;-71
2022/10/21 06:06:06;;;;;;;26.03;8.83;;;;;;;41.88;32.13;101035.31;5109825;28;20441;-72
2022/10/21 06:08:34;;;;;;;18.43;8.80;;;;;;;41.82;31.99;101025.72;5096981;28;20179;-71
2022/10/21 06:11:03;;;;;;;11.03;6.83;;;;;;;41.93;31.89;101037.03;5107922;28;20420;-71
2022/10/21 06:13:30;;;;;;;14.43;7.73;;;;;;;41.86;32.20;101024.72;5096396;28;20979;-70
2022/10/21 06:15:56;;;;;;;21.93;7.70;;;;;;;41.97;32.13;101024.34;5101995;28;20468;-71
2022/10/21 06:18:23;;;;;;;20.13;8.37;;;;;;;42.02;32.09;101021.44;5096092;28;20815;-71
2022/10/21 06:20:48;;;;;;;17.17;10.57;;;;;;;42.04;32.21;101030.06;5107397;28;20415;-70
2022/10/21 06:23:15;;;;;;;29.37;10.00;;;;;;;41.98;32.30;101045.00;5110805;28;20416;-72
2022/10/21 06:25:42;;;;;;;21.10;8.70;;;;;;;41.96;32.51;101045.34;5111568;28;20509;-70
2022/10/21 06:28:08;;;;;;;19.93;8.37;;;;;;;42.00;32.40;101048.22;5108815;28;20423;-69
2022/10/21 06:30:34;;;;;;;16.00;8.23;;;;;;;42.05;32.32;101056.19;5104479;28;20415;-70
2022/10/21 06:33:00;;;;;;;12.07;6.90;;;;;;;42.10;32.23;101054.06;5107658;28;20408;-79
2022/10/21 06:35:29;;;;;;;18.80;7.17;;;;;;;42.25;32.08;101058.19;5110442;28;20416;-72
2022/10/21 06:37:55;;;;;;;24.47;9.97;;;;;;;42.17;32.49;101042.66;5110102;28;20170;-70
2022/10/21 06:40:20;;;;;;;21.73;11.90;;;;;;;42.35;32.38;101048.78;5110441;28;20419;-69
2022/10/21 06:42:48;;;;;;;18.40;8.00;;;;;;;42.27;32.35;101045.00;5110909;28;20181;-71
2022/10/21 06:45:14;;;;;;;14.60;7.20;;;;;;;42.36;32.39;101061.31;5111487;28;20170;-70
2022/10/21 06:47:40;;;;;;;20.43;8.37;;;;;;;42.20;32.88;101066.56;5110028;28;20403;-69
2022/10/21 06:50:06;;;;;;;15.73;8.67;;;;;;;42.37;32.50;101077.34;5111641;28;20151;-71
2022/10/21 06:52:32;;;;;;;25.27;11.00;;;;;;;42.24;33.14;101078.41;5111039;28;20952;-71
2022/10/21 06:54:58;;;;;;;15.20;8.37;;;;;;;42.13;33.08;101083.41;5092547;28;20407;-70
2022/10/21 06:57:26;;;;;;;24.43;8.83;;;;;;;42.15;33.34;101088.53;5109337;28;20451;-69
2022/10/21 06:59:52;;;;;;;18.53;8.97;;;;;;;41.76;33.69;101086.97;5111320;28;20162;-70
2022/10/21 07:02:18;;;;;;;20.03;8.53;;;;;;;42.25;32.62;101088.16;5109439;28;20427;-70
2022/10/21 07:04:47;;;;;;;16.00;7.77;;;;;;;42.44;32.70;101079.53;5093176;28;20480;-70
2022/10/21 07:07:13;;;;;;;17.27;8.70;;;;;;;42.45;32.55;101081.13;5111288;28;20418;-69
2022/10/21 07:09:39;;;;;;;25.00;11.47;;;;;;;42.38;32.80;101089.84;5094239;28;20427;-71
2022/10/21 07:12:05;;;;;;;17.13;8.20;;;;;;;42.42;32.64;101092.72;5112727;28;20436;-70
2022/10/21 07:14:31;;;;;;;24.67;8.00;;;;;;;42.47;32.46;101094.41;5112775;28;20186;-69
2022/10/21 07:16:57;;;;;;;18.10;8.00;;;;;;;42.34;32.65;101102.53;5110566;28;20479;-69
2022/10/21 07:19:23;;;;;;;19.87;8.03;;;;;;;42.42;32.58;101111.81;5112297;28;20163;-69
2022/10/21 07:21:49;;;;;;;30.03;10.00;;;;;;;42.50;32.50;101121.03;5112582;28;20702;-69
2022/10/21 07:24:15;;;;;;;17.37;8.83;;;;;;;42.55;32.60;101118.13;5114585;28;20502;-69
2022/10/21 07:26:41;;;;;;;14.70;8.73;;;;;;;42.54;32.29;101116.50;5134945;27;20564;-69
2022/10/21 07:29:07;;;;;;;20.40;9.83;;;;;;;42.32;32.79;101121.16;5135535;27;20411;-69
2022/10/21 07:31:36;;;;;;;11.57;7.17;;;;;;;42.29;32.52;101121.00;5135183;27;20930;-69
2022/10/21 07:34:04;;;;;;;17.67;9.97;;;;;;;42.19;33.21;101130.38;5135299;27;20290;-70
2022/10/21 07:36:33;;;;;;;18.83;8.27;;;;;;;42.39;32.90;101132.34;5135052;27;20606;-70
2022/10/21 07:39:02;;;;;;;25.50;8.70;;;;;;;42.49;32.55;101136.59;5135236;27;20411;-69
2022/10/21 07:41:31;;;;;;;19.47;7.70;;;;;;;42.48;32.78;101135.03;5135002;27;20416;-69
2022/10/21 07:43:58;;;;;;;10.03;7.77;;;;;;;42.08;33.40;101132.66;5135393;27;20415;-69
2022/10/21 07:46:24;;;;;;;24.20;10.30;;;;;;;42.07;33.68;101144.69;5134956;27;20768;-68
2022/10/21 07:48:51;;;;;;;18.33;7.33;;;;;;;42.06;33.76;101143.09;5135028;27;20494;-69
2022/10/21 07:51:20;;;;;;;14.73;10.20;;;;;;;41.56;34.69;101137.50;5134981;27;20950;-69
2022/10/21 07:53:48;;;;;;;18.80;8.50;;;;;;;41.71;34.38;101145.13;5134854;27;20410;-68
2022/10/21 07:56:19;;;;;;;18.53;10.90;;;;;;;42.15;33.57;101148.50;5134732;27;20459;-69
2022/10/21 07:58:48;;;;;;;18.43;9.53;;;;;;;42.33;33.43;101154.66;5110227;27;20417;-69
2022/10/21 08:01:16;;;;;;;20.90;8.53;;;;;;;42.38;33.15;101158.00;5077391;28;20982;-69
2022/10/21 08:03:42;;;;;;;17.33;7.60;;;;;;;42.52;33.09;101167.88;5076866;28;20424;-71
2022/10/21 08:06:11;;;;;;;18.27;8.30;;;;;;;42.46;33.13;101163.72;5093855;28;20975;-70
2022/10/21 08:08:38;;;;;;;25.87;8.70;;;;;;;42.53;33.09;101164.00;5076821;28;20405;-70
2022/10/21 08:11:05;;;;;;;11.00;6.20;;;;;;;42.70;32.45;101163.91;5093568;28;20925;-69
2022/10/21 08:13:31;;;;;;;16.57;6.90;;;;;;;42.65;32.54;101166.84;5094993;28;20471;-69
2022/10/21 08:15:57;;;;;;;25.47;6.90;;;;;;;42.54;32.63;101171.88;5093166;28;20500;-69
2022/10/21 08:18:25;;;;;;;13.97;7.53;;;;;;;42.71;32.32;101175.63;5093342;28;20255;-69
2022/10/21 08:20:51;;;;;;;15.73;7.40;;;;;;;42.57;32.97;101178.59;5095156;28;20373;-69
2022/10/21 08:23:19;;;;;;;24.47;7.37;;;;;;;42.65;32.55;101173.09;5093174;28;20976;-69
2022/10/21 08:25:53;;;;;;;19.20;8.80;;;;;;;42.61;32.15;101176.84;5093602;28;20420;-69
2022/10/21 08:28:21;;;;;;;17.67;7.73;;;;;;;42.18;33.13;101177.84;5093149;28;20496;-68
2022/10/21 08:30:47;;;;;;;22.90;9.63;;;;;;;42.45;32.52;101182.03;5093297;28;20420;-68
2022/10/21 08:33:14;;;;;;;15.93;7.30;;;;;;;42.21;32.98;101179.91;5076455;28;20444;-69
2022/10/21 08:35:40;;;;;;;20.70;8.10;;;;;;;42.51;32.75;101182.63;5094403;28;20747;-70
2022/10/21 08:38:07;;;;;;;20.00;9.37;;;;;;;42.52;32.55;101192.41;5092910;28;20413;-70
2022/10/21 08:40:47;;;;;;;21.30;6.33;;;;;;;42.39;32.70;101191.53;5094575;28;20413;-70
2022/10/21 08:43:20;;;;;;;33.27;7.87;;;;;;;42.67;32.61;101193.81;5092938;28;20447;-70
2022/10/21 08:46:03;;;;;;;15.83;6.27;;;;;;;42.66;32.07;101198.44;5092889;28;20425;-69
2022/10/21 08:48:34;;;;;;;15.10;7.07;;;;;;;42.84;32.22;101189.00;5092863;28;20466;-68
2022/10/21 08:51:02;;;;;;;17.03;7.47;;;;;;;42.61;32.24;101195.94;5076873;28;20433;-69
2022/10/21 08:53:49;;;;;;;12.43;6.63;;;;;;;42.14;33.13;101194.03;5092896;28;20412;-68
2022/10/21 08:56:16;;;;;;;16.13;6.10;;;;;;;42.48;32.43;101194.19;5092641;28;20448;-69
2022/10/21 08:58:45;;;;;;;12.93;7.97;;;;;;;42.27;33.36;101203.13;5094407;28;20441;-68
2022/10/21 09:01:26;;;;;;;25.93;8.60;;;;;;;42.44;33.18;101196.00;5111172;28;20416;-68
2022/10/21 09:04:14;;;;;;;27.40;7.00;;;;;;;42.64;32.49;101196.03;5114664;28;20384;-69
2022/10/21 09:07:08;;;;;;;12.73;6.67;;;;;;;42.68;32.50;101190.75;5096055;28;20967;-69
2022/10/21 09:09:59;;;;;;;15.60;9.60;;;;;;;42.13;33.37;101195.16;5113942;28;20424;-69
2022/10/21 09:13:08;;;;;;;15.50;7.00;;;;;;;42.51;32.65;101194.34;5114547;28;20380;-69
2022/10/21 09:15:46;;;;;;;10.63;7.00;;;;;;;42.26;33.34;101195.28;5112503;28;20893;-68
2022/10/21 09:18:44;;;;;;;13.43;6.80;;;;;;;42.28;33.36;101193.81;5112892;28;20515;-68
2022/10/21 09:21:13;;;;;;;16.80;6.63;;;;;;;42.25;33.32;101189.03;5072077;28;20443;-68
2022/10/21 09:24:17;;;;;;;10.50;5.47;;;;;;;42.27;32.81;101192.22;5114389;28;20380;-68
2022/10/21 09:26:46;;;;;;;11.10;8.23;;;;;;;42.35;32.94;101187.84;5112171;28;20791;-68
2022/10/21 09:29:23;;;;;;;16.43;8.37;;;;;;;42.20;32.97;101193.88;5113878;28;20440;-69
2022/10/21 09:31:49;;;;;;;16.03;5.93;;;;;;;42.28;32.62;101185.66;5112499;28;20438;-68
2022/10/21 09:34:39;;;;;;;12.80;5.67;;;;;;;42.08;33.28;101194.53;5112276;28;20935;-68
2022/10/21 09:37:12;;;;;;;12.20;6.57;;;;;;;42.25;33.21;101190.97;5112317;28;20456;-72
2022/10/21 09:39:46;;;;;;;15.07;7.77;;;;;;;42.39;33.01;101184.13;5113840;28;20483;-72
2022/10/21 09:42:12;;;;;;;13.93;5.83;;;;;;;42.18;32.76;101193.41;5079212;28;20934;-72
2022/10/21 09:44:39;;;;;;;10.67;5.10;;;;;;;42.65;32.54;101188.66;5112302;28;20415;-71
2022/10/21 09:47:19;;;;;;;10.40;5.73;;;;;;;42.68;32.35;101179.81;5111942;28;20419;-69
2022/10/21 09:49:50;;;;;;;12.87;6.23;;;;;;;42.58;32.48;101182.94;5111951;28;20411;-69
2022/10/21 09:52:19;;;;;;;15.83;6.63;;;;;;;42.61;32.41;101185.00;5095114;28;20404;-69
2022/10/21 09:54:47;;;;;;;17.50;6.60;;;;;;;42.73;31.95;101182.34;5112449;28;20433;-70
2022/10/21 09:57:19;;;;;;;17.77;6.77;;;;;;;42.46;32.67;101178.16;5112132;28;20444;-70
2022/10/21 09:59:58;;;;;;;17.03;8.30;;;;;;;42.71;31.95;101184.59;5091524;28;20424;-69
2022/10/21 10:02:32;;;;;;;21.87;7.77;;;;;;;42.71;32.33;101170.97;5091599;28;20489;-69
2022/10/21 10:05:34;;;;;;;14.33;6.33;;;;;;;42.66;32.28;101173.88;5091927;28;20939;-70
2022/10/21 10:08:00;;;;;;;22.90;6.87;;;;;;;42.61;32.50;101171.38;5091445;28;20410;-68
2022/10/21 10:10:33;;;;;;;16.47;9.07;;;;;;;42.69;32.10;101165.03;5074805;28;20420;-67
2022/10/21 10:12:59;;;;;;;22.70;7.73;;;;;;;42.79;32.63;101167.38;5091282;28;20420;-67
2022/10/21 10:15:34;;;;;;;19.80;6.20;;;;;;;42.54;32.63;101155.50;5091210;28;20464;-67
2022/10/21 10:18:01;;;;;;;22.53;8.10;;;;;;;42.89;32.06;101161.50;5074888;28;20475;-66
2022/10/21 10:20:28;;;;;;;14.90;7.27;;;;;;;42.68;32.27;101155.28;5092962;28;20401;-67
2022/10/21 10:22:59;;;;;;;18.00;6.63;;;;;;;42.86;32.13;101154.00;5091349;28;20507;-67
2022/10/21 10:25:31;;;;;;;19.33;6.83;;;;;;;43.00;32.08;101139.31;5091623;28;20572;-67
2022/10/21 10:28:17;;;;;;;17.30;7.00;;;;;;;42.91;32.26;101147.56;5074695;28;20421;-67
2022/10/21 10:30:43;;;;;;;14.83;7.00;;;;;;;43.01;31.95;101141.69;5091279;28;20440;-67
2022/10/21 10:33:17;;;;;;;22.10;8.40;;;;;;;42.88;32.22;101137.28;5093181;28;20407;-67
2022/10/21 10:35:59;;;;;;;18.03;8.23;;;;;;;43.09;31.81;101140.00;5091077;28;20491;-67
2022/10/21 10:38:39;;;;;;;15.23;6.93;;;;;;;43.26;31.66;101139.03;5092816;28;20399;-67
2022/10/21 10:41:15;;;;;;;13.43;6.57;;;;;;;43.41;31.33;101136.50;5092811;28;20401;-67
2022/10/21 10:43:54;;;;;;;20.83;8.90;;;;;;;42.81;32.11;101128.84;5091537;28;20388;-67
2022/10/21 10:46:28;;;;;;;11.27;5.53;;;;;;;42.88;32.05;101126.38;5091667;28;20389;-67
2022/10/21 10:48:56;;;;;;;16.33;8.00;;;;;;;43.02;31.53;101134.28;5091155;28;20420;-67
2022/10/21 10:51:26;;;;;;;22.90;8.53;;;;;;;42.63;32.29;101130.91;5091050;28;20420;-67
2022/10/21 10:54:02;;;;;;;17.40;7.80;;;;;;;42.75;32.08;101124.72;5092595;28;20385;-67
2022/10/21 10:56:36;;;;;;;14.67;6.80;;;;;;;43.11;31.61;101124.91;5092793;28;20463;-67
2022/10/21 10:59:33;;;;;;;17.13;6.37;;;;;;;43.05;31.38;101122.72;5091802;28;20420;-67
2022/10/21 11:02:11;;;;;;;12.20;5.50;;;;;;;43.29;31.28;101119.28;5094961;28;20416;-69
2022/10/21 11:05:05;;;;;;;13.03;6.23;;;;;;;43.08;31.75;101116.56;5094968;28;20416;-69
2022/10/21 11:07:55;;;;;;;10.93;6.20;;;;;;;43.47;31.44;101115.25;5094685;28;20423;-69
2022/10/21 11:10:30;;;;;;;13.13;6.03;;;;;;;43.27;31.77;101110.59;5094642;28;20424;-69
2022/10/21 11:12:59;;;;;;;21.57;6.23;;;;;;;43.59;31.17;101115.25;5096173;28;20389;-69
2022/10/21 11:15:48;;;;;;;17.40;6.33;;;;;;;43.41;31.07;101111.94;5094587;28;20475;-67
2022/10/21 11:18:22;;;;;;;8.77;5.73;;;;;;;43.54;31.38;101106.47;5096187;28;20504;-67
2022/10/21 11:21:04;;;;;;;14.20;5.87;;;;;;;43.34;31.62;101099.91;5094547;28;20412;-67
2022/10/21 11:24:06;;;;;;;14.00;6.27;;;;;;;43.37;31.61;101100.03;5094603;28;20821;-67
2022/10/21 11:26:45;;;;;;;13.10;5.77;;;;;;;43.55;31.32;101102.59;5096282;28;20458;-67
2022/10/21 11:29:32;;;;;;;19.47;7.00;;;;;;;43.55;31.30;101099.88;5094311;28;20439;-66
2022/10/21 11:32:21;;;;;;;14.13;7.17;;;;;;;43.63;31.38;101091.56;5094398;28;20492;-67